Sault Sainte Marie, MI

5:41 AM EST on December 22, 2014 (GMT -0500)
Mackinac Island | Change Station
CLOSE
Current Station
Airport
Location: Mackinac Island,
Elevation: 741 ft
Nearby Weather Stations

Elev 741 ft 45.87 °N, 84.64 °W | Updated 5 minutes ago

Snow
Snow
31 °F
Feels Like 21 °F
N
13
Wind Variable Wind from South
Gusts 22 mph

Today
High -- | Low -- °F
--% Chance of Precip.
Yesterday
High -- | Low -- °F
Precip. -- in
8:18 AM 4:53 PM
New Moon, 0% visible
Pressure 30.05 in
Visibility 7.0 miles
Clouds Overcast 4200 ft
Windchill 21 °F
Dew Point 26 °F
Humidity 80%
Rainfall 0.00 in
Snow Depth Not available.
UV 0 out of 12
Pollen .10 out of 12
Air Quality Not available.
Flu Activity Not available.
METAR KMCD 221036Z AUTO 17011G19KT 130V190 7SM OVC042 00/M03 A3005 RMK AO2 T10051035

More Conditions Fewer Conditions

Pressure 30.05 in
Visibility 7.0 miles
Clouds Overcast 4200 ft
Windchill 21 °F
Dew Point 26 °F
Humidity 80%
Rainfall 0.00 in
Snow Depth Not available.
UV 0 out of 12
Pollen .10 out of 12
Air Quality Not available.
Flu Activity Not available.
METAR KMCD 221036Z AUTO 17011G19KT 130V190 7SM OVC042 00/M03 A3005 RMK AO2 T10051035

More Conditions Fewer Conditions

Nowcast | as of 5:00 am EST on December 22, 2014

At 6 am...snow likely. Temperature 31. Southeast winds 10 mph. At 8 am...cloudy. Slight chance of snow. Temperature 30. Southeast winds 10 mph. At 10 am...cloudy. Temperature 30. Southeast winds 12 mph. At 12 PM...mostly cloudy. Temperature 32. Southeast winds 13 mph.

×

10-Day Weather Forecast

Almanac

Astronomy

Dec. 22, 2014 Rise Set
Actual Time
Civil Twilight
Nautical Twilight
Astronomical Twilight
Moon
Length of Visible Light
Length of Day
Tomorrow will be .
, % of the Moon is Illuminated

Today's Extremes

State Highs State Lows

Community

WunderPhotos

Upload Photos

1,779,583 photos uploaded!

WunderBlogs® & News

Nearby

Air Quality

  Air Quality AQ Index Pollutant
Not available.

Snow Depth

Station Depth Elevation

Earthquake Activity

City Distance Mag. Time & Date
Minimum magnitude displayed is 2.5.

Coastal Water Temperatures

Place Temperature

Nearby Weather Stations